| time (UTC) | temp F | wind direction | speed MPH | gust MPH | rain 1hr in | rain 24hr in | rain mn in | humidity % | barometer mb |
| 20260507140526 | 53 | 190 | 6.0 | 10.0 | 0.00 | 0.00 | 0.00 | 60 | 1005.7 |
| 20260507140115 | 53 | 207 | 5.0 | 11.0 | 0.00 | 0.00 | 0.00 | 62 | 1005.6 |
| 20260507135606 | 52 | 200 | 6.0 | 13.0 | 0.00 | 0.00 | 0.00 | 63 | 1005.5 |
| 20260507135100 | 52 | 210 | 7.0 | 13.0 | 0.00 | 0.00 | 0.00 | 64 | 1005.5 |
| 20260507134545 | 53 | 184 | 5.0 | 9.0 | 0.00 | 0.00 | 0.00 | 67 | 1005.6 |
| 20260507134053 | 53 | 222 | 2.0 | 5.0 | 0.00 | 0.00 | 0.00 | 72 | 1005.6 |
| 20260507133523 | 52 | 210 | 4.0 | 9.0 | 0.00 | 0.00 | 0.00 | 70 | 1005.7 |
| 20260507133116 | 52 | 200 | 3.0 | 10.0 | 0.00 | 0.00 | 0.00 | 70 | 1005.6 |
| 20260507132605 | 52 | 206 | 3.0 | 8.0 | 0.00 | 0.00 | 0.00 | 73 | 1005.4 |
| 20260507132100 | 51 | 201 | 5.0 | 10.0 | 0.00 | 0.00 | 0.00 | 73 | 1005.4 |
| 20260507131544 | 51 | 212 | 6.0 | 12.0 | 0.00 | 0.00 | 0.00 | 73 | 1005.5 |
| 20260507131031 | 51 | 203 | 6.0 | 10.0 | 0.00 | 0.00 | 0.00 | 77 | 1005.6 |
| 20260507130519 | 50 | 201 | 5.0 | 8.0 | 0.00 | 0.00 | 0.00 | 79 | 1005.6 |
| 20260507130122 | 50 | 197 | 5.0 | 11.0 | 0.00 | 0.00 | 0.00 | 80 | 1005.8 |
| 20260507125603 | 50 | 197 | 7.0 | 11.0 | 0.00 | 0.00 | 0.00 | 79 | 1005.9 |
| 20260507125059 | 50 | 204 | 7.0 | 10.0 | 0.00 | 0.00 | 0.00 | 81 | 1005.9 |
| 20260507124547 | 50 | 212 | 5.0 | 9.0 | 0.00 | 0.00 | 0.00 | 83 | 1005.8 |
| 20260507124036 | 50 | 200 | 6.0 | 10.0 | 0.00 | 0.00 | 0.00 | 84 | 1005.8 |
| 20260507123531 | 49 | 209 | 5.0 | 9.0 | 0.00 | 0.00 | 0.00 | 86 | 1005.7 |
| 20260507123022 | 49 | 201 | 3.0 | 6.0 | 0.00 | 0.00 | 0.00 | 91 | 1005.4 |
| 20260507122516 | 48 | 203 | 3.0 | 5.0 | 0.00 | 0.00 | 0.00 | 90 | 1005.4 |
| 20260507122136 | 48 | 188 | 2.0 | 4.0 | 0.00 | 0.00 | 0.00 | 91 | 1005.4 |
| 20260507121611 | 48 | 174 | 2.0 | 4.0 | 0.00 | 0.00 | 0.00 | 91 | 1005.4 |
| 20260507121059 | 48 | 202 | 2.0 | 5.0 | 0.00 | 0.00 | 0.00 | 90 | 1005.5 |
| 20260507120549 | 48 | 204 | 3.0 | 6.0 | 0.00 | 0.00 | 0.00 | 90 | 1005.6 |
| 20260507120044 | 47 | 202 | 3.0 | 5.0 | 0.00 | 0.00 | 0.00 | 90 | 1005.5 |
| 20260507115556 | 47 | 195 | 2.0 | 5.0 | 0.00 | 0.00 | 0.00 | 90 | 1005.5 |
| 20260507115040 | 47 | 204 | 4.0 | 8.0 | 0.00 | 0.00 | 0.00 | 91 | 1005.5 |
| 20260507114633 | 47 | 209 | 5.0 | 8.0 | 0.00 | 0.00 | 0.00 | 91 | 1005.4 |
| 20260507114108 | 47 | 188 | 2.0 | 4.0 | 0.00 | 0.00 | 0.00 | 92 | 1005.3 |
| 20260507113558 | 47 | 202 | 3.0 | 8.0 | 0.00 | 0.00 | 0.00 | 92 | 1005.3 |
| 20260507113044 | 47 | 207 | 4.0 | 6.0 | 0.00 | 0.00 | 0.00 | 93 | 1005.2 |
| 20260507112540 | 47 | 210 | 3.0 | 5.0 | 0.00 | 0.00 | 0.00 | 94 | 1005.3 |
| 20260507112026 | 47 | 198 | 2.0 | 4.0 | 0.00 | 0.00 | 0.00 | 94 | 1005.1 |
| 20260507111619 | 47 | 196 | 2.0 | 4.0 | 0.00 | 0.00 | 0.00 | 94 | 1005.0 |
| 20260507111108 | 47 | 190 | 1.0 | 4.0 | 0.00 | 0.00 | 0.00 | 94 | 1004.8 |
| 20260507110619 | 47 | 212 | 3.0 | 5.0 | 0.00 | 0.00 | 0.00 | 94 | 1005.1 |
| 20260507110048 | 47 | 194 | 2.0 | 4.0 | 0.00 | 0.00 | 0.00 | 94 | 1005.1 |
| 20260507105543 | 47 | 210 | 2.0 | 4.0 | 0.00 | 0.00 | 0.00 | 94 | 1004.9 |
| 20260507105056 | 47 | 197 | 2.0 | 4.0 | 0.00 | 0.00 | 0.00 | 94 | 1005.0 |
| 20260507104531 | 47 | 204 | 3.0 | 6.0 | 0.00 | 0.00 | 0.00 | 95 | 1005.2 |
| 20260507104021 | 47 | 197 | 2.0 | 4.0 | 0.00 | 0.00 | 0.00 | 95 | 1005.1 |
| 20260507103516 | 48 | 182 | 2.0 | 4.0 | 0.00 | 0.00 | 0.00 | 95 | 1004.8 |
| 20260507103112 | 48 | 201 | 1.0 | 5.0 | 0.00 | 0.00 | 0.00 | 95 | 1004.7 |
| 20260507102600 | 48 | 192 | 1.0 | 4.0 | 0.00 | 0.00 | 0.00 | 95 | 1004.5 |
| 20260507102109 | 48 | 188 | 2.0 | 5.0 | 0.00 | 0.00 | 0.00 | 96 | 1004.7 |
| 20260507101548 | 48 | 205 | 3.0 | 5.0 | 0.00 | 0.00 | 0.00 | 96 | 1004.5 |
| 20260507101036 | 48 | 155 | 1.0 | 5.0 | 0.00 | 0.00 | 0.00 | 96 | 1004.1 |
| 20260507100526 | 48 | 184 | 2.0 | 5.0 | 0.00 | 0.00 | 0.00 | 96 | 1004.0 |
| 20260507100017 | 48 | 184 | 2.0 | 4.0 | 0.00 | 0.00 | 0.00 | 96 | 1004.1 |
| 20260507095613 | 48 | 193 | 3.0 | 5.0 | 0.00 | 0.00 | 0.00 | 96 | 1004.4 |
| 20260507095107 | 48 | 190 | 1.0 | 5.0 | 0.00 | 0.00 | 0.00 | 96 | 1004.1 |
| 20260507094558 | 48 | 199 | 1.0 | 4.0 | 0.00 | 0.00 | 0.00 | 96 | 1004.2 |
| 20260507094051 | 48 | 201 | 2.0 | 4.0 | 0.00 | 0.00 | 0.00 | 96 | 1004.4 |
| 20260507093536 | 49 | 194 | 2.0 | 4.0 | 0.00 | 0.00 | 0.00 | 96 | 1004.5 |
| 20260507093027 | 49 | 186 | 2.0 | 4.0 | 0.00 | 0.00 | 0.00 | 96 | 1004.4 |
| 20260507092517 | 49 | 187 | 2.0 | 4.0 | 0.00 | 0.00 | 0.00 | 96 | 1004.2 |
| 20260507092107 | 49 | 118 | 1.0 | 4.0 | 0.00 | 0.00 | 0.00 | 96 | 1004.1 |
| 20260507091604 | 49 | 197 | 3.0 | 5.0 | 0.00 | 0.00 | 0.00 | 96 | 1004.3 |
| 20260507091112 | 49 | 196 | 3.0 | 5.0 | 0.00 | 0.00 | 0.00 | 96 | 1004.2 |
| 20260507090600 | 49 | 148 | 2.0 | 6.0 | 0.00 | 0.00 | 0.00 | 96 | 1003.9 |
| 20260507090028 | 49 | 191 | 2.0 | 6.0 | 0.00 | 0.00 | 0.00 | 96 | 1004.0 |
| 20260507085524 | 49 | 67 | 3.0 | 6.0 | 0.00 | 0.00 | 0.00 | 96 | 1004.0 |
| 20260507085127 | 49 | 211 | 3.0 | 5.0 | 0.00 | 0.00 | 0.00 | 96 | 1004.2 |
| 20260507084556 | 49 | 194 | 2.0 | 6.0 | 0.00 | 0.00 | 0.00 | 96 | 1004.1 |
| 20260507084048 | 49 | 186 | 3.0 | 7.0 | 0.00 | 0.00 | 0.00 | 96 | 1004.0 |
| 20260507083537 | 49 | 195 | 3.0 | 10.0 | 0.00 | 0.00 | 0.00 | 96 | 1003.9 |
| 20260507083028 | 49 | 205 | 3.0 | 10.0 | 0.00 | 0.00 | 0.00 | 96 | 1003.7 |
| 20260507082639 | 49 | 204 | 3.0 | 5.0 | 0.00 | 0.00 | 0.00 | 96 | 1003.7 |
| 20260507082109 | 49 | 197 | 4.0 | 8.0 | 0.00 | 0.00 | 0.00 | 96 | 1003.9 |
| 20260507081734 | 49 | 213 | 3.0 | 9.0 | 0.00 | 0.00 | 0.00 | 96 | 1004.0 |
| 20260507081051 | 49 | 203 | 3.0 | 6.0 | 0.00 | 0.00 | 0.00 | 95 | 1004.1 |
| 20260507080534 | 49 | 205 | 4.0 | 6.0 | 0.00 | 0.00 | 0.00 | 95 | 1003.8 |
| 20260507080024 | 49 | 201 | 3.0 | 5.0 | 0.00 | 0.00 | 0.00 | 95 | 1004.0 |
| 20260507075520 | 49 | 199 | 4.0 | 8.0 | 0.00 | 0.00 | 0.00 | 95 | 1004.2 |
| 20260507075105 | 50 | 197 | 5.0 | 8.0 | 0.00 | 0.00 | 0.00 | 95 | 1004.1 |
| 20260507074601 | 50 | 210 | 5.0 | 8.0 | 0.00 | 0.00 | 0.00 | 95 | 1004.1 |
| 20260507074044 | 50 | 207 | 3.0 | 6.0 | 0.00 | 0.00 | 0.00 | 95 | 1003.8 |
| 20260507073532 | 50 | 202 | 3.0 | 6.0 | 0.00 | 0.00 | 0.00 | 95 | 1004.1 |
| 20260507073028 | 50 | 206 | 3.0 | 9.0 | 0.00 | 0.00 | 0.00 | 95 | 1004.2 |
| 20260507072614 | 50 | 203 | 4.0 | 7.0 | 0.00 | 0.00 | 0.00 | 95 | 1004.4 |
| 20260507072131 | 50 | 179 | 3.0 | 5.0 | 0.00 | 0.00 | 0.00 | 94 | 1004.1 |
| 20260507071604 | 50 | 213 | 2.0 | 5.0 | 0.00 | 0.00 | 0.00 | 94 | 1004.4 |
| 20260507071048 | 50 | 169 | 3.0 | 5.0 | 0.00 | 0.00 | 0.00 | 94 | 1004.7 |
| 20260507070540 | 51 | 163 | 2.0 | 7.0 | 0.00 | 0.00 | 0.00 | 94 | 1004.4 |
| 20260507070027 | 51 | 180 | 3.0 | 6.0 | 0.00 | 0.00 | 0.00 | 93 | 1004.3 |
| 20260507065556 | 51 | 184 | 3.0 | 6.0 | 0.00 | 0.00 | 0.00 | 91 | 1003.8 |
| 20260507065108 | 51 | 181 | 3.0 | 7.0 | 0.00 | 0.00 | 0.00 | 91 | 1003.4 |
| 20260507064604 | 51 | 195 | 2.0 | 6.0 | 0.00 | 0.00 | 0.00 | 90 | 1003.3 |
| 20260507064049 | 52 | 208 | 2.0 | 6.0 | 0.00 | 0.00 | 0.00 | 90 | 1002.9 |
| 20260507063540 | 52 | 178 | 2.0 | 5.0 | 0.00 | 0.00 | 0.00 | 90 | 1002.9 |
| 20260507063028 | 52 | 188 | 3.0 | 6.0 | 0.00 | 0.00 | 0.00 | 89 | 1003.0 |
| 20260507062518 | 52 | 167 | 2.0 | 5.0 | 0.00 | 0.00 | 0.00 | 90 | 1003.1 |
| 20260507062108 | 52 | 196 | 3.0 | 7.0 | 0.00 | 0.00 | 0.00 | 90 | 1003.2 |
| 20260507061656 | 52 | 166 | 3.0 | 5.0 | 0.00 | 0.00 | 0.00 | 90 | 1003.4 |
| 20260507061052 | 52 | 4 | 2.0 | 5.0 | 0.00 | 0.00 | 0.00 | 90 | 1003.4 |
| 20260507060535 | 52 | 199 | 1.0 | 5.0 | 0.00 | 0.00 | 0.00 | 90 | 1003.3 |
| 20260507060028 | 53 | 186 | 2.0 | 7.0 | 0.00 | 0.00 | 0.00 | 90 | 1003.4 |
| 20260507055615 | 53 | 199 | 4.0 | 9.0 | 0.00 | 0.00 | 0.00 | 90 | 1003.4 |
| 20260507055104 | 53 | 218 | 3.0 | 7.0 | 0.00 | 0.00 | 0.00 | 90 | 1003.6 |
| 20260507054617 | 53 | 182 | 4.0 | 7.0 | 0.00 | 0.00 | 0.00 | 91 | 1003.7 |
| 20260507054044 | 53 | 186 | 3.0 | 7.0 | 0.00 | 0.00 | 0.00 | 90 | 1003.5 |
| 20260507053540 | 53 | 213 | 2.0 | 7.0 | 0.00 | 0.00 | 0.00 | 90 | 1003.5 |
| 20260507053024 | 53 | 141 | 3.0 | 7.0 | 0.00 | 0.00 | 0.00 | 90 | 1003.6 |
| 20260507052614 | 54 | 323 | 3.0 | 7.0 | 0.00 | 0.00 | 0.00 | 90 | 1003.7 |
| 20260507052108 | 54 | 188 | 3.0 | 8.0 | 0.00 | 0.00 | 0.00 | 91 | 1003.8 |
| 20260507051556 | 54 | 181 | 2.0 | 7.0 | 0.00 | 0.00 | 0.00 | 91 | 1004.0 |
| 20260507051046 | 54 | 194 | 4.0 | 9.0 | 0.00 | 0.00 | 0.00 | 91 | 1004.1 |
| 20260507050534 | 54 | 211 | 3.0 | 7.0 | 0.00 | 0.00 | 0.00 | 91 | 1004.0 |
| 20260507050029 | 54 | 201 | 4.0 | 6.0 | 0.00 | 0.00 | 0.00 | 91 | 1003.9 |
| 20260507045544 | 54 | 207 | 4.0 | 8.0 | 0.00 | 0.00 | 0.00 | 93 | 1004.0 |
| 20260507045019 | 55 | 195 | 2.0 | 4.0 | 0.00 | 0.00 | 0.00 | 93 | 1004.0 |
| 20260507044612 | 55 | 194 | 2.0 | 3.0 | 0.00 | 0.00 | 0.00 | 93 | 1004.0 |
| 20260507044108 | 55 | 174 | 1.0 | 2.0 | 0.00 | 0.00 | 0.00 | 93 | 1003.9 |
| 20260507043553 | 55 | 189 | 2.0 | 3.0 | 0.00 | 0.00 | 0.00 | 93 | 1004.0 |
| 20260507043041 | 55 | 193 | 2.0 | 3.0 | 0.00 | 0.00 | 0.00 | 93 | 1004.0 |
| 20260507042529 | 55 | 191 | 1.0 | 4.0 | 0.00 | 0.00 | 0.00 | 92 | 1003.9 |
| 20260507042017 | 55 | 202 | 2.0 | 4.0 | 0.00 | 0.00 | 0.00 | 92 | 1003.8 |
| 20260507041612 | 55 | 190 | 1.0 | 4.0 | 0.00 | 0.00 | 0.00 | 92 | 1004.0 |
| 20260507041100 | 55 | 207 | 2.0 | 4.0 | 0.00 | 0.00 | 0.00 | 92 | 1004.0 |
| 20260507040548 | 55 | 210 | 3.0 | 6.0 | 0.00 | 0.00 | 0.00 | 91 | 1004.1 |
| 20260507040036 | 56 | 199 | 3.0 | 6.0 | 0.00 | 0.00 | 0.00 | 92 | 1004.1 |
| 20260507035524 | 56 | 200 | 3.0 | 6.0 | 0.00 | 0.00 | 0.00 | 94 | 1003.9 |
| 20260507035116 | 56 | 207 | 5.0 | 9.0 | 0.00 | 0.00 | 0.00 | 97 | 1004.1 |
| 20260507034604 | 57 | 206 | 3.0 | 7.0 | 0.00 | 0.00 | 0.00 | 97 | 1004.0 |
| 20260507034043 | 57 | 210 | 3.0 | 4.0 | 0.00 | 0.00 | 0.00 | 97 | 1003.9 |
| 20260507033540 | 57 | 192 | 3.0 | 5.0 | 0.00 | 0.00 | 0.00 | 97 | 1004.0 |
| 20260507033028 | 57 | 202 | 3.0 | 5.0 | 0.00 | 0.00 | 0.00 | 97 | 1003.7 |
| 20260507032620 | 57 | 159 | 2.0 | 4.0 | 0.00 | 0.00 | 0.00 | 96 | 1003.5 |
| 20260507032108 | 57 | 132 | 1.0 | 2.0 | 0.00 | 0.00 | 0.00 | 96 | 1003.5 |
| 20260507031615 | 56 | 160 | 1.0 | 2.0 | 0.00 | 0.00 | 0.00 | 96 | 1003.6 |
| 20260507031055 | 56 | 106 | 1.0 | 3.0 | 0.00 | 0.00 | 0.00 | 97 | 1003.6 |
| 20260507030540 | 56 | 106 | 1.0 | 3.0 | 0.00 | 0.00 | 0.00 | 97 | 1003.8 |
| 20260507030028 | 56 | 141 | 2.0 | 3.0 | 0.00 | 0.00 | 0.00 | 96 | 1003.8 |
| 20260507025520 | 56 | 100 | 1.0 | 3.0 | 0.00 | 0.00 | 0.00 | 96 | 1003.7 |
| 20260507025116 | 56 | 155 | 0.0 | 2.0 | 0.00 | 0.00 | 0.00 | 96 | 1003.7 |
| 20260507024604 | 56 | 134 | 1.0 | 5.0 | 0.00 | 0.00 | 0.00 | 97 | 1003.6 |
| 20260507024042 | 56 | 175 | 2.0 | 5.0 | 0.00 | 0.00 | 0.00 | 97 | 1003.5 |
| 20260507023537 | 56 | 149 | 2.0 | 4.0 | 0.00 | 0.00 | 0.00 | 97 | 1003.6 |
| 20260507023027 | 56 | 156 | 1.0 | 6.0 | 0.00 | 0.00 | 0.00 | 97 | 1003.7 |
| 20260507022538 | 56 | 115 | 3.0 | 9.0 | 0.00 | 0.00 | 0.00 | 97 | 1003.7 |
| 20260507022119 | 56 | 159 | 3.0 | 6.0 | 0.00 | 0.00 | 0.00 | 97 | 1003.8 |
| 20260507021605 | 56 | 125 | 2.0 | 6.0 | 0.00 | 0.00 | 0.00 | 97 | 1003.8 |
| 20260507021052 | 56 | 54 | 2.0 | 5.0 | 0.00 | 0.00 | 0.00 | 97 | 1003.8 |
| 20260507020541 | 56 | 136 | 2.0 | 6.0 | 0.00 | 0.00 | 0.00 | 97 | 1003.8 |
| 20260507020031 | 56 | 128 | 2.0 | 4.0 | 0.00 | 0.00 | 0.00 | 97 | 1004.0 |
| 20260507015519 | 56 | 116 | 2.0 | 5.0 | 0.00 | 0.00 | 0.00 | 97 | 1003.8 |
| 20260507015116 | 56 | 342 | 2.0 | 4.0 | 0.00 | 0.00 | 0.00 | 97 | 1003.8 |
| 20260507014625 | 56 | 134 | 1.0 | 4.0 | 0.00 | 0.00 | 0.00 | 96 | 1003.9 |
| 20260507014115 | 56 | 140 | 2.0 | 4.0 | 0.00 | 0.00 | 0.00 | 97 | 1003.9 |
| 20260507013548 | 56 | 130 | 2.0 | 5.0 | 0.00 | 0.00 | 0.00 | 97 | 1003.8 |
| 20260507013055 | 56 | 109 | 2.0 | 6.0 | 0.00 | 0.00 | 0.00 | 97 | 1003.5 |
| 20260507012526 | 56 | 92 | 1.0 | 7.0 | 0.00 | 0.00 | 0.00 | 97 | 1003.6 |
| 20260507012020 | 56 | 111 | 3.0 | 6.0 | 0.00 | 0.00 | 0.00 | 97 | 1003.6 |
| 20260507011612 | 56 | 143 | 3.0 | 5.0 | 0.00 | 0.00 | 0.00 | 97 | 1003.5 |
| 20260507011100 | 56 | 123 | 2.0 | 6.0 | 0.00 | 0.00 | 0.00 | 97 | 1003.8 |
| 20260507010558 | 56 | 65 | 1.0 | 6.0 | 0.00 | 0.00 | 0.00 | 97 | 1003.7 |
| 20260507010104 | 56 | 78 | 3.0 | 7.0 | 0.00 | 0.00 | 0.00 | 97 | 1003.8 |
| 20260507005534 | 56 | 103 | 3.0 | 6.0 | 0.00 | 0.00 | 0.00 | 97 | 1003.7 |
| 20260507005028 | 56 | 152 | 1.0 | 4.0 | 0.00 | 0.00 | 0.00 | 97 | 1003.7 |
| 20260507004521 | 57 | 102 | 2.0 | 6.0 | 0.00 | 0.00 | 0.00 | 97 | 1003.9 |
| 20260507004136 | 56 | 154 | 2.0 | 6.0 | 0.00 | 0.00 | 0.00 | 97 | 1004.0 |
| 20260507003609 | 56 | 130 | 3.0 | 8.0 | 0.00 | 0.00 | 0.00 | 97 | 1004.0 |
| 20260507003101 | 56 | 160 | 1.0 | 4.0 | 0.00 | 0.00 | 0.00 | 97 | 1004.1 |
| 20260507002617 | 56 | 82 | 2.0 | 7.0 | 0.00 | 0.00 | 0.00 | 97 | 1003.9 |
| 20260507002049 | 56 | 159 | 3.0 | 5.0 | 0.00 | 0.00 | 0.00 | 97 | 1003.8 |
| 20260507001537 | 56 | 122 | 1.0 | 4.0 | 0.00 | 0.00 | 0.00 | 97 | 1003.9 |
| 20260507001032 | 56 | 102 | 2.0 | 5.0 | 0.00 | 0.00 | 0.00 | 97 | 1003.8 |
| 20260507000518 | 56 | 127 | 2.0 | 6.0 | 0.00 | 0.00 | 0.00 | 97 | 1003.8 |
| 20260507000105 | 56 | 123 | 2.0 | 5.0 | 0.00 | 0.00 | 0.00 | 97 | 1003.7 |
| 20260506235604 | 56 | 140 | 2.0 | 5.0 | 0.00 | 0.00 | 0.00 | 97 | 1003.7 |
| 20260506235055 | 56 | 128 | 2.0 | 9.0 | 0.00 | 0.00 | 0.00 | 96 | 1003.6 |
| 20260506234650 | 56 | 86 | 2.0 | 5.0 | 0.00 | 0.00 | 0.00 | 96 | 1003.7 |
| 20260506234044 | 56 | 151 | 2.0 | 5.0 | 0.00 | 0.00 | 0.00 | 96 | 1003.7 |
| 20260506233531 | 56 | 93 | 1.0 | 6.0 | 0.00 | 0.00 | 0.00 | 96 | 1003.6 |
| 20260506233022 | 56 | 70 | 4.0 | 8.0 | 0.00 | 0.00 | 0.00 | 96 | 1003.5 |
| 20260506232516 | 56 | 95 | 3.0 | 12.0 | 0.00 | 0.00 | 0.00 | 96 | 1003.7 |
| 20260506232108 | 56 | 88 | 3.0 | 6.0 | 0.00 | 0.00 | 0.00 | 96 | 1003.5 |
| 20260506231556 | 56 | 124 | 3.0 | 6.0 | 0.00 | 0.00 | 0.00 | 96 | 1003.6 |
| 20260506231103 | 56 | 132 | 3.0 | 6.0 | 0.00 | 0.00 | 0.00 | 96 | 1003.6 |
| 20260506230534 | 56 | 105 | 2.0 | 5.0 | 0.00 | 0.00 | 0.00 | 96 | 1003.6 |
| 20260506230029 | 56 | 139 | 2.0 | 7.0 | 0.00 | 0.00 | 0.00 | 96 | 1003.5 |
| 20260506225522 | 56 | 134 | 3.0 | 6.0 | 0.00 | 0.00 | 0.00 | 96 | 1003.3 |
| 20260506225136 | 56 | 112 | 4.0 | 9.0 | 0.00 | 0.00 | 0.00 | 95 | 1003.3 |
| 20260506224608 | 56 | 61 | 3.0 | 8.0 | 0.00 | 0.00 | 0.00 | 95 | 1003.4 |
| 20260506224059 | 56 | 148 | 3.0 | 9.0 | 0.00 | 0.00 | 0.00 | 95 | 1003.3 |
| 20260506223548 | 56 | 70 | 2.0 | 6.0 | 0.00 | 0.00 | 0.00 | 95 | 1003.4 |
| 20260506223102 | 56 | 131 | 3.0 | 6.0 | 0.00 | 0.00 | 0.00 | 95 | 1003.5 |
| 20260506222540 | 56 | 57 | 3.0 | 10.0 | 0.00 | 0.00 | 0.00 | 95 | 1003.4 |
| 20260506222028 | 56 | 136 | 2.0 | 10.0 | 0.00 | 0.00 | 0.00 | 95 | 1003.2 |
| 20260506221620 | 57 | 136 | 3.0 | 6.0 | 0.00 | 0.00 | 0.00 | 95 | 1003.3 |
| 20260506221059 | 57 | 142 | 2.0 | 6.0 | 0.00 | 0.00 | 0.00 | 94 | 1003.3 |
| 20260506220554 | 57 | 140 | 2.0 | 5.0 | 0.00 | 0.00 | 0.00 | 94 | 1003.3 |
| 20260506220045 | 57 | 193 | 2.0 | 7.0 | 0.00 | 0.00 | 0.00 | 94 | 1003.2 |
| 20260506215525 | 57 | 142 | 3.0 | 7.0 | 0.00 | 0.00 | 0.00 | 94 | 1003.3 |
| 20260506215019 | 57 | 107 | 4.0 | 14.0 | 0.00 | 0.00 | 0.00 | 94 | 1003.3 |
| 20260506214612 | 57 | 144 | 4.0 | 14.0 | 0.00 | 0.00 | 0.00 | 94 | 1003.2 |
| 20260506214105 | 57 | 66 | 5.0 | 13.0 | 0.00 | 0.00 | 0.00 | 94 | 1003.3 |
| 20260506213553 | 57 | 110 | 3.0 | 9.0 | 0.00 | 0.00 | 0.00 | 94 | 1003.4 |
| 20260506213106 | 57 | 125 | 3.0 | 7.0 | 0.00 | 0.00 | 0.00 | 94 | 1003.5 |
| 20260506212540 | 57 | 134 | 5.0 | 11.0 | 0.00 | 0.00 | 0.00 | 94 | 1003.5 |
| 20260506212032 | 57 | 146 | 4.0 | 8.0 | 0.00 | 0.00 | 0.00 | 94 | 1003.6 |
| 20260506211526 | 57 | 76 | 3.0 | 11.0 | 0.00 | 0.00 | 0.00 | 94 | 1003.7 |
| 20260506211022 | 57 | 112 | 4.0 | 9.0 | 0.00 | 0.00 | 0.00 | 93 | 1003.8 |
| 20260506210516 | 57 | 45 | 4.0 | 11.0 | 0.00 | 0.00 | 0.00 | 93 | 1003.9 |
| 20260506210037 | 58 | 146 | 2.0 | 11.0 | 0.00 | 0.00 | 0.00 | 93 | 1003.9 |
| 20260506205601 | 58 | 118 | 2.0 | 8.0 | 0.00 | 0.00 | 0.00 | 92 | 1003.8 |
| 20260506205052 | 58 | 111 | 3.0 | 10.0 | 0.00 | 0.00 | 0.00 | 92 | 1003.8 |
| 20260506204600 | 58 | 80 | 3.0 | 6.0 | 0.00 | 0.00 | 0.00 | 93 | 1003.9 |
| 20260506204039 | 58 | 69 | 4.0 | 10.0 | 0.00 | 0.00 | 0.00 | 92 | 1003.9 |
| 20260506203524 | 58 | 128 | 3.0 | 7.0 | 0.00 | 0.00 | 0.00 | 92 | 1003.9 |
| 20260506203112 | 58 | 81 | 3.0 | 7.0 | 0.00 | 0.00 | 0.00 | 92 | 1003.9 |
| 20260506202605 | 58 | 110 | 3.0 | 7.0 | 0.00 | 0.00 | 0.00 | 92 | 1004.1 |
| 20260506202132 | 58 | 72 | 3.0 | 6.0 | 0.00 | 0.00 | 0.00 | 92 | 1004.0 |
| 20260506201608 | 58 | 177 | 2.0 | 9.0 | 0.00 | 0.00 | 0.00 | 92 | 1004.1 |
| 20260506201032 | 58 | 159 | 3.0 | 6.0 | 0.00 | 0.00 | 0.00 | 92 | 1004.2 |
| 20260506200521 | 58 | 111 | 3.0 | 9.0 | 0.00 | 0.00 | 0.00 | 92 | 1004.1 |
| 20260506200108 | 58 | 93 | 5.0 | 11.0 | 0.00 | 0.00 | 0.00 | 92 | 1004.2 |
| 20260506195604 | 58 | 105 | 2.0 | 6.0 | 0.00 | 0.00 | 0.00 | 92 | 1004.2 |
| 20260506195052 | 58 | 138 | 5.0 | 11.0 | 0.00 | 0.00 | 0.00 | 93 | 1004.3 |
| 20260506194540 | 58 | 89 | 3.0 | 8.0 | 0.00 | 0.00 | 0.00 | 92 | 1004.5 |
| 20260506194022 | 58 | 150 | 2.0 | 9.0 | 0.00 | 0.00 | 0.00 | 92 | 1004.5 |
| 20260506193620 | 58 | 187 | 3.0 | 10.0 | 0.00 | 0.00 | 0.00 | 93 | 1004.7 |
| 20260506193112 | 58 | 63 | 3.0 | 6.0 | 0.00 | 0.00 | 0.00 | 93 | 1004.5 |
| 20260506192600 | 58 | 77 | 4.0 | 8.0 | 0.00 | 0.00 | 0.00 | 93 | 1004.5 |
| 20260506192109 | 58 | 143 | 3.0 | 9.0 | 0.00 | 0.00 | 0.00 | 93 | 1004.6 |
| 20260506191543 | 58 | 136 | 2.0 | 7.0 | 0.00 | 0.00 | 0.00 | 93 | 1004.6 |
| 20260506191027 | 58 | 148 | 3.0 | 8.0 | 0.00 | 0.00 | 0.00 | 92 | 1004.6 |
| 20260506190519 | 57 | 56 | 4.0 | 11.0 | 0.00 | 0.00 | 0.00 | 92 | 1004.7 |
| 20260506190115 | 57 | 125 | 2.0 | 9.0 | 0.00 | 0.00 | 0.00 | 92 | 1004.7 |
| 20260506185613 | 58 | 115 | 4.0 | 6.0 | 0.00 | 0.00 | 0.00 | 91 | 1004.9 |
| 20260506185119 | 58 | 56 | 5.0 | 10.0 | 0.00 | 0.00 | 0.00 | 91 | 1004.8 |
| 20260506184548 | 58 | 63 | 4.0 | 8.0 | 0.00 | 0.00 | 0.00 | 90 | 1004.6 |
| 20260506184037 | 58 | 81 | 2.0 | 5.0 | 0.00 | 0.00 | 0.00 | 89 | 1004.6 |
| 20260506183553 | 58 | 68 | 3.0 | 7.0 | 0.00 | 0.00 | 0.00 | 88 | 1004.9 |
| 20260506183029 | 58 | 85 | 2.0 | 11.0 | 0.00 | 0.00 | 0.00 | 88 | 1004.9 |
| 20260506182521 | 58 | 80 | 6.0 | 11.0 | 0.00 | 0.00 | 0.00 | 88 | 1005.1 |
| 20260506182116 | 58 | 75 | 3.0 | 11.0 | 0.00 | 0.00 | 0.00 | 87 | 1005.4 |
| 20260506181611 | 59 | 121 | 3.0 | 10.0 | 0.00 | 0.00 | 0.00 | 86 | 1005.5 |
| 20260506181103 | 59 | 96 | 3.0 | 10.0 | 0.00 | 0.00 | 0.00 | 85 | 1005.8 |
| 20260506180558 | 60 | 236 | 3.0 | 9.0 | 0.00 | 0.00 | 0.00 | 83 | 1005.8 |
| 20260506180049 | 60 | 89 | 2.0 | 6.0 | 0.00 | 0.00 | 0.00 | 81 | 1005.7 |
| 20260506175623 | 60 | 116 | 3.0 | 12.0 | 0.00 | 0.00 | 0.00 | 80 | 1005.6 |
| 20260506175034 | 60 | 102 | 4.0 | 9.0 | 0.00 | 0.00 | 0.00 | 80 | 1005.8 |
| 20260506174533 | 61 | 114 | 4.0 | 9.0 | 0.00 | 0.00 | 0.00 | 79 | 1005.9 |
| 20260506174024 | 61 | 90 | 5.0 | 7.0 | 0.00 | 0.00 | 0.00 | 78 | 1005.8 |
| 20260506173615 | 61 | 30 | 3.0 | 10.0 | 0.00 | 0.00 | 0.00 | 78 | 1005.9 |
| 20260506173129 | 61 | 188 | 4.0 | 10.0 | 0.00 | 0.00 | 0.00 | 76 | 1006.0 |
| 20260506172556 | 62 | 51 | 5.0 | 9.0 | 0.00 | 0.00 | 0.00 | 76 | 1006.0 |
| 20260506172045 | 62 | 91 | 3.0 | 8.0 | 0.00 | 0.00 | 0.00 | 77 | 1006.1 |
| 20260506171552 | 62 | 233 | 4.0 | 11.0 | 0.00 | 0.00 | 0.00 | 76 | 1006.1 |
| 20260506171021 | 63 | 138 | 4.0 | 11.0 | 0.00 | 0.00 | 0.00 | 74 | 1006.1 |
| 20260506170516 | 64 | 112 | 4.0 | 11.0 | 0.00 | 0.00 | 0.00 | 73 | 1006.1 |
| 20260506170129 | 64 | 94 | 5.0 | 8.0 | 0.00 | 0.00 | 0.00 | 73 | 1006.2 |
| 20260506165604 | 64 | 130 | 5.0 | 11.0 | 0.00 | 0.00 | 0.00 | 73 | 1006.1 |
| 20260506165046 | 64 | 132 | 5.0 | 11.0 | 0.00 | 0.00 | 0.00 | 72 | 1006.1 |
| 20260506164540 | 64 | 115 | 6.0 | 15.0 | 0.00 | 0.00 | 0.00 | 71 | 1006.0 |
| 20260506164041 | 65 | 108 | 4.0 | 10.0 | 0.00 | 0.00 | 0.00 | 71 | 1006.0 |
| 20260506163524 | 65 | 143 | 3.0 | 10.0 | 0.00 | 0.00 | 0.00 | 71 | 1006.0 |
| 20260506163117 | 64 | 159 | 4.0 | 15.0 | 0.00 | 0.00 | 0.00 | 72 | 1006.1 |
| 20260506162605 | 65 | 57 | 7.0 | 15.0 | 0.00 | 0.00 | 0.00 | 70 | 1006.1 |
| 20260506162052 | 65 | 131 | 5.0 | 11.0 | 0.00 | 0.00 | 0.00 | 71 | 1006.4 |
| 20260506161541 | 65 | 126 | 6.0 | 15.0 | 0.00 | 0.00 | 0.00 | 71 | 1006.4 |
| 20260506161037 | 64 | 114 | 4.0 | 11.0 | 0.00 | 0.00 | 0.00 | 72 | 1006.4 |
| 20260506160522 | 64 | 97 | 5.0 | 15.0 | 0.00 | 0.00 | 0.00 | 71 | 1006.6 |
| 20260506160112 | 65 | 110 | 4.0 | 14.0 | 0.00 | 0.00 | 0.00 | 70 | 1006.5 |
| 20260506155605 | 65 | 142 | 3.0 | 10.0 | 0.00 | 0.00 | 0.00 | 70 | 1006.6 |
| 20260506155056 | 65 | 84 | 1.0 | 10.0 | 0.00 | 0.00 | 0.00 | 70 | 1006.6 |
| 20260506154548 | 65 | 109 | 5.0 | 12.0 | 0.00 | 0.00 | 0.00 | 69 | 1006.6 |
| 20260506154053 | 65 | 156 | 6.0 | 12.0 | 0.00 | 0.00 | 0.00 | 68 | 1006.5 |
| 20260506153521 | 66 | 118 | 5.0 | 12.0 | 0.00 | 0.00 | 0.00 | 69 | 1006.5 |
| 20260506153118 | 66 | 86 | 5.0 | 13.0 | 0.00 | 0.00 | 0.00 | 67 | 1006.5 |
| 20260506152606 | 67 | 206 | 3.0 | 10.0 | 0.00 | 0.00 | 0.00 | 67 | 1006.5 |
| 20260506152054 | 67 | 134 | 4.0 | 10.0 | 0.00 | 0.00 | 0.00 | 67 | 1006.6 |
| 20260506151540 | 67 | 91 | 5.0 | 13.0 | 0.00 | 0.00 | 0.00 | 67 | 1006.6 |
| 20260506151031 | 67 | 150 | 4.0 | 12.0 | 0.00 | 0.00 | 0.00 | 67 | 1006.6 |
| 20260506150516 | 68 | 104 | 5.0 | 12.0 | 0.00 | 0.00 | 0.00 | 66 | 1006.8 |
| 20260506150104 | 68 | 113 | 3.0 | 11.0 | 0.00 | 0.00 | 0.00 | 67 | 1006.6 |
| 20260506145553 | 67 | 159 | 4.0 | 11.0 | 0.00 | 0.00 | 0.00 | 68 | 1006.8 |
| 20260506145104 | 66 | 93 | 4.0 | 13.0 | 0.00 | 0.00 | 0.00 | 69 | 1006.9 |
| 20260506144538 | 66 | 126 | 5.0 | 11.0 | 0.00 | 0.00 | 0.00 | 69 | 1006.8 |
| 20260506144057 | 66 | 160 | 4.0 | 11.0 | 0.00 | 0.00 | 0.00 | 69 | 1006.8 |
| 20260506143532 | 66 | 137 | 3.0 | 11.0 | 0.00 | 0.00 | 0.00 | 69 | 1007.0 |
| 20260506143022 | 66 | 77 | 5.0 | 12.0 | 0.00 | 0.00 | 0.00 | 68 | 1007.0 |
| 20260506142516 | 66 | 107 | 4.0 | 6.0 | 0.00 | 0.00 | 0.00 | 69 | 1007.0 |
| 20260506142109 | 66 | 143 | 4.0 | 11.0 | 0.00 | 0.00 | 0.00 | 69 | 1006.9 |
| 20260506141606 | 65 | 157 | 3.0 | 10.0 | 0.00 | 0.00 | 0.00 | 72 | 1006.9 |
| 20260506141100 | 65 | 148 | 5.0 | 10.0 | 0.00 | 0.00 | 0.00 | 70 | 1006.9 |